Qashlu, Yemen
Current Conditions -  °F | °C
As of 7:00 AM on Monday 24 Nov 2014 (Local Time) from OYSQ Reporting Station
Few Clouds Few Clouds  
Wind Chill: 25°   Ceiling: Unl
Heat Index: 26°   Visibility: 6mi
Dew Point: 21°   Wind: 2mph
Humidity: 78%   Direction: NA
Pressure: 29.91"   Gusts: NA
Location:  12.61°N, 53.86°E
Report Text: OYSQ 240400Z VRB02KT 9999 FEW018 25/21 Q1013
Loading
Personal Weather Stations






























Interactive Weather Map New forecast layout! Learn more

10-Day Weather Forecast

Advertisements
Track Severe Weather on mobile